Time;durP1;ratioP1;P1;durP2;ratioP2;P2;SDS_P1;SDS_P2;PMS_P1;PMS_P2;Temp;Humidity;BMP_temperature;BMP_pressure;BME280_temperature;BME280_humidity;BME280_pressure;Samples;Min_cycle;Max_cycle;Signal;HPM_P1;HPM_P2
2022/05/21 00:00:36;;;;;;;;;4.00;3.00;;;;;18.62;56.75;102076.06;5058581;28;45373;-61
2022/05/21 00:03:02;;;;;;;;;6.00;4.00;;;;;18.60;57.13;102080.66;5058241;28;45415;-60
2022/05/21 00:05:30;;;;;;;;;4.00;3.00;;;;;18.60;57.17;102077.16;5046895;28;45526;-60
2022/05/21 00:07:56;;;;;;;;;7.75;4.00;;;;;18.58;57.15;102079.94;5053792;28;46310;-60
2022/05/21 00:10:23;;;;;;;;;4.75;3.00;;;;;18.56;57.01;102078.31;5059146;28;45399;-61
2022/05/21 00:12:49;;;;;;;;;3.50;2.00;;;;;18.53;56.99;102078.56;5058126;28;45307;-61
2022/05/21 00:15:19;;;;;;;;;5.25;4.00;;;;;18.54;57.06;102077.59;5048101;28;45410;-60
2022/05/21 00:17:44;;;;;;;;;4.00;3.00;;;;;18.51;57.30;102084.00;5057660;28;45295;-61
2022/05/21 00:20:47;;;;;;;;;3.25;2.00;;;;;18.50;56.96;102076.13;5058895;28;45185;-60
2022/05/21 00:22:57;;;;;;;;;2.00;2.00;;;;;18.45;57.15;102081.75;5057646;28;45308;-60
2022/05/21 00:25:23;;;;;;;;;4.00;3.25;;;;;18.44;57.35;102079.22;5058758;28;45228;-59
2022/05/21 00:27:50;;;;;;;;;5.50;3.00;;;;;18.44;57.33;102069.38;5057715;28;45561;-60
2022/05/21 00:30:16;;;;;;;;;2.75;2.75;;;;;18.46;57.20;102077.28;5055872;28;45547;-60
2022/05/21 00:32:42;;;;;;;;;3.50;3.00;;;;;18.44;57.04;102079.22;5055101;28;45408;-59
2022/05/21 00:35:09;;;;;;;;;3.00;2.00;;;;;18.41;57.31;102080.28;5046411;28;45585;-60
2022/05/21 00:37:35;;;;;;;;;5.00;2.25;;;;;18.40;57.72;102086.56;5042746;28;45241;-60
2022/05/21 00:40:01;;;;;;;;;2.00;2.00;;;;;18.42;57.46;102084.66;5062049;28;45375;-61
2022/05/21 00:42:26;;;;;;;;;4.00;3.00;;;;;18.44;57.50;102081.88;5051591;28;45454;-60
2022/05/21 00:44:52;;;;;;;;;5.00;2.50;;;;;18.41;57.25;102090.97;5062260;28;45299;-60
2022/05/21 00:47:17;;;;;;;;;3.00;2.00;;;;;18.36;57.20;102083.28;5060127;28;45687;-61
2022/05/21 00:49:44;;;;;;;;;3.00;2.25;;;;;18.35;57.58;102086.91;5061928;28;45337;-60
2022/05/21 00:52:12;;;;;;;;;3.50;2.00;;;;;18.32;57.68;102086.25;5060724;28;45530;-60
2022/05/21 00:54:45;;;;;;;;;5.00;2.50;;;;;18.30;57.37;102088.19;5061526;28;45466;-60
2022/05/21 00:57:19;;;;;;;;;3.00;3.00;;;;;18.25;57.75;102099.19;5059988;28;46266;-61
2022/05/21 00:59:51;;;;;;;;;4.00;2.00;;;;;18.21;57.54;102084.34;5061182;28;45442;-60
2022/05/21 01:02:28;;;;;;;;;5.00;1.00;;;;;18.18;57.85;102086.38;5049710;28;45380;-60
2022/05/21 01:04:57;;;;;;;;;1.75;1.75;;;;;18.14;58.01;102086.59;5057175;28;45267;-60
2022/05/21 01:07:25;;;;;;;;;5.25;3.25;;;;;18.16;58.04;102077.63;5051429;28;45428;-61
2022/05/21 01:09:55;;;;;;;;;3.25;3.25;;;;;18.17;58.33;102080.22;5047987;28;45245;-62
2022/05/21 01:12:24;;;;;;;;;5.00;2.75;;;;;18.17;58.24;102071.31;5052855;28;45383;-61
2022/05/21 01:14:52;;;;;;;;;4.25;2.00;;;;;18.18;58.32;102076.56;5053778;28;45399;-60
2022/05/21 01:17:20;;;;;;;;;4.00;4.00;;;;;18.18;58.20;102084.56;5051408;28;45400;-61
2022/05/21 01:20:00;;;;;;;;;3.50;3.00;;;;;18.18;58.41;102081.91;5051091;28;45257;-61
2022/05/21 01:22:53;;;;;;;;;2.00;2.00;;;;;18.16;58.55;102081.13;5047855;28;45406;-61
2022/05/21 01:25:24;;;;;;;;;4.00;3.75;;;;;18.16;58.36;102080.28;5044785;28;45175;-62
2022/05/21 01:27:52;;;;;;;;;4.00;2.50;;;;;18.16;58.62;102082.94;5054775;28;45432;-60
2022/05/21 01:30:26;;;;;;;;;5.00;2.00;;;;;18.14;58.58;102081.25;5047948;28;45463;-61
2022/05/21 01:32:52;;;;;;;;;5.00;4.00;;;;;18.14;58.57;102075.06;5049470;28;45316;-61
2022/05/21 01:35:18;;;;;;;;;5.00;3.75;;;;;18.13;58.92;102074.22;5048387;28;45728;-61
2022/05/21 01:37:48;;;;;;;;;3.00;3.00;;;;;18.12;58.92;102069.84;5050272;28;45611;-61
2022/05/21 01:40:17;;;;;;;;;3.00;2.25;;;;;18.10;58.88;102079.78;5049843;28;45490;-61
2022/05/21 01:42:43;;;;;;;;;4.25;3.00;;;;;18.11;58.86;102075.28;5052005;28;45624;-61
2022/05/21 01:45:09;;;;;;;;;4.00;4.00;;;;;18.11;58.72;102083.28;5051853;28;45262;-61
2022/05/21 01:47:37;;;;;;;;;4.00;4.00;;;;;18.13;59.26;102079.56;5051317;28;45558;-61
2022/05/21 01:50:03;;;;;;;;;4.50;4.00;;;;;18.14;59.35;102077.72;5050305;28;45527;-61
2022/05/21 01:52:29;;;;;;;;;7.75;4.00;;;;;18.13;59.05;102076.88;5051550;28;45440;-61
2022/05/21 01:54:54;;;;;;;;;3.50;2.75;;;;;18.13;58.83;102081.38;5063618;28;45455;-61
2022/05/21 01:57:21;;;;;;;;;3.00;3.00;;;;;18.16;59.19;102083.81;5071006;28;46140;-61
2022/05/21 01:59:46;;;;;;;;;4.00;3.50;;;;;18.15;58.94;102074.09;5070791;27;45442;-61
2022/05/21 02:02:12;;;;;;;;;6.75;3.25;;;;;18.14;58.93;102077.72;5070341;28;45355;-61
2022/05/21 02:04:38;;;;;;;;;3.75;3.75;;;;;18.12;58.86;102072.50;5070915;28;45327;-61
2022/05/21 02:07:04;;;;;;;;;4.00;3.00;;;;;18.10;58.17;102069.09;5069811;28;45358;-61
2022/05/21 02:09:29;;;;;;;;;6.00;3.00;;;;;18.07;58.38;102063.13;5068796;28;45423;-61
2022/05/21 02:11:55;;;;;;;;;3.25;2.50;;;;;18.05;58.46;102065.91;5069096;28;45356;-61
2022/05/21 02:14:21;;;;;;;;;4.75;3.00;;;;;18.07;58.59;102079.97;5070718;28;45500;-61
2022/05/21 02:16:46;;;;;;;;;3.00;3.00;;;;;18.09;58.40;102074.56;5069877;28;45236;-61
2022/05/21 02:19:12;;;;;;;;;3.00;3.00;;;;;18.06;58.34;102069.41;5070805;28;45282;-61
2022/05/21 02:21:40;;;;;;;;;5.00;3.00;;;;;18.04;58.28;102082.84;5069966;28;45559;-61
2022/05/21 02:24:07;;;;;;;;;5.00;2.75;;;;;18.01;58.08;102080.41;5070235;28;45658;-61
2022/05/21 02:26:35;;;;;;;;;1.00;1.00;;;;;18.00;58.12;102073.34;5070133;28;45334;-63
2022/05/21 02:29:01;;;;;;;;;6.75;2.50;;;;;17.97;58.49;102084.25;5072332;27;45482;-61
2022/05/21 02:31:27;;;;;;;;;4.00;2.00;;;;;17.93;58.73;102077.44;5069731;28;45512;-61
2022/05/21 02:33:52;;;;;;;;;5.50;3.00;;;;;17.91;58.75;102074.00;5067309;28;45390;-61
2022/05/21 02:39:25;;;;;;;;;2.50;2.50;;;;;17.92;58.57;102080.19;5071139;28;45873;-61
2022/05/21 02:41:47;;;;;;;;;3.00;2.25;;;;;17.93;58.31;102073.88;5071598;28;45567;-61
2022/05/21 02:44:12;;;;;;;;;2.00;2.00;;;;;17.93;58.67;102073.88;5069897;28;45493;-61
2022/05/21 02:46:38;;;;;;;;;3.00;2.75;;;;;17.92;58.70;102075.69;5070577;28;45354;-61
2022/05/21 02:49:03;;;;;;;;;3.50;3.50;;;;;17.93;58.64;102079.22;5069067;28;45457;-61
2022/05/21 02:51:29;;;;;;;;;3.00;3.00;;;;;17.92;58.48;102078.34;5070290;28;45481;-61
2022/05/21 02:53:54;;;;;;;;;4.50;2.00;;;;;17.95;58.33;102072.84;5070426;28;45482;-61
2022/05/21 02:56:20;;;;;;;;;3.00;3.00;;;;;17.94;58.66;102073.81;5069354;28;45729;-61
2022/05/21 02:58:45;;;;;;;;;3.75;2.50;;;;;17.93;58.63;102066.75;5069776;28;45421;-61
2022/05/21 03:01:11;;;;;;;;;2.00;2.00;;;;;17.97;57.68;102075.38;5069474;28;45434;-61
2022/05/21 03:03:36;;;;;;;;;4.00;2.50;;;;;17.93;57.76;102077.44;5070355;28;45240;-60
2022/05/21 03:06:02;;;;;;;;;2.00;2.00;;;;;17.91;57.81;102084.66;5069478;28;46206;-61
2022/05/21 03:11:11;;;;;;;;;2.50;2.50;;;;;17.88;57.88;102082.22;5068778;28;45235;-61
2022/05/21 03:13:39;;;;;;;;;1.25;1.25;;;;;17.87;58.07;102085.00;5069749;28;45480;-61
2022/05/21 03:16:05;;;;;;;;;1.75;1.00;;;;;17.85;58.25;102085.94;5069196;28;45404;-61
2022/05/21 03:18:30;;;;;;;;;1.00;1.00;;;;;17.84;58.48;102086.03;5069640;28;45274;-61
2022/05/21 03:20:56;;;;;;;;;2.50;2.00;;;;;17.84;58.28;102083.38;5069599;28;45145;-61
2022/05/21 03:23:21;;;;;;;;;2.50;2.00;;;;;17.84;58.24;102075.38;5070318;28;45620;-61
2022/05/21 03:25:46;;;;;;;;;3.50;3.00;;;;;17.85;58.49;102074.41;5068024;28;46122;-61
2022/05/21 03:28:17;;;;;;;;;2.75;2.25;;;;;17.85;58.53;102082.41;5072629;28;45165;-61
2022/05/21 03:30:42;;;;;;;;;2.00;2.00;;;;;17.87;58.44;102085.00;5068021;28;45509;-61
2022/05/21 03:33:08;;;;;;;;;5.25;2.50;;;;;17.89;58.73;102086.59;5070229;28;45592;-61
2022/05/21 03:35:34;;;;;;;;;1.50;1.00;;;;;17.90;57.67;102084.75;5067911;28;45410;-61
2022/05/21 03:38:00;;;;;;;;;2.00;2.00;;;;;17.90;57.45;102087.44;5068929;28;45244;-61
2022/05/21 03:40:29;;;;;;;;;4.00;2.75;;;;;17.90;57.56;102082.09;5069628;28;45396;-61
2022/05/21 03:42:54;;;;;;;;;5.00;2.75;;;;;17.89;57.09;102086.59;5071311;28;45410;-61
2022/05/21 03:45:20;;;;;;;;;3.50;2.00;;;;;17.90;57.05;102085.63;5067166;28;46044;-61
2022/05/21 03:47:46;;;;;;;;;3.50;2.00;;;;;17.89;57.11;102086.59;5069177;28;45667;-61
2022/05/21 03:50:15;;;;;;;;;5.00;2.00;;;;;17.89;56.54;102083.91;5069224;28;45359;-61
2022/05/21 03:52:41;;;;;;;;;3.00;1.75;;;;;17.90;56.66;102080.28;5070031;28;45426;-61
2022/05/21 03:55:07;;;;;;;;;3.25;2.00;;;;;17.90;56.59;102084.75;5066896;28;45396;-61
2022/05/21 03:57:33;;;;;;;;;4.00;2.50;;;;;17.89;56.53;102081.25;5071200;28;45338;-61
2022/05/21 03:59:58;;;;;;;;;2.00;2.00;;;;;17.88;57.00;102092.88;5070317;28;45512;-61
2022/05/21 04:02:25;;;;;;;;;2.50;2.50;;;;;17.89;56.63;102097.25;5070515;28;45382;-61
2022/05/21 04:04:51;;;;;;;;;2.50;1.75;;;;;17.88;56.79;102097.34;5067444;27;45454;-61
2022/05/21 04:07:17;;;;;;;;;2.75;2.75;;;;;17.86;56.71;102094.81;5070912;28;45272;-61
2022/05/21 04:09:42;;;;;;;;;2.25;2.00;;;;;17.84;56.60;102089.53;5070601;28;45328;-61
2022/05/21 04:12:08;;;;;;;;;3.00;1.00;;;;;17.83;56.73;102095.00;5071351;28;45378;-61
2022/05/21 04:14:34;;;;;;;;;4.50;2.75;;;;;17.83;57.05;102093.19;5071201;28;45427;-61
2022/05/21 04:17:01;;;;;;;;;2.25;2.00;;;;;17.84;57.00;102092.22;5072617;28;45329;-61
2022/05/21 04:19:28;;;;;;;;;3.50;2.00;;;;;17.84;56.71;102096.69;5074583;27;46557;-61
2022/05/21 04:21:54;;;;;;;;;3.00;2.00;;;;;17.81;56.56;102097.78;5073819;28;45556;-60
2022/05/21 04:24:20;;;;;;;;;1.00;1.00;;;;;17.81;56.62;102100.44;5071495;28;46169;-61
2022/05/21 04:26:46;;;;;;;;;2.00;2.00;;;;;17.81;56.69;102094.25;5072329;28;45429;-61
2022/05/21 04:29:12;;;;;;;;;3.75;1.75;;;;;17.82;56.81;102095.94;5076787;28;45447;-61
2022/05/21 04:31:37;;;;;;;;;3.25;1.75;;;;;17.85;56.65;102093.94;5070762;28;45530;-61
2022/05/21 04:34:04;;;;;;;;;2.00;2.00;;;;;17.87;56.55;102098.31;5071326;28;46125;-61
2022/05/21 04:36:30;;;;;;;;;3.00;2.00;;;;;17.88;56.44;102102.69;5074129;28;45223;-61
2022/05/21 04:38:56;;;;;;;;;1.50;1.00;;;;;17.90;56.39;102103.44;5072082;27;45318;-61
2022/05/21 04:41:22;;;;;;;;;5.75;2.00;;;;;17.90;56.76;102100.75;5073983;28;45480;-61
2022/05/21 04:43:48;;;;;;;;;4.00;2.00;;;;;17.90;56.40;102095.44;5071543;28;46276;-61
2022/05/21 04:46:17;;;;;;;;;3.00;2.00;;;;;17.92;56.81;102097.03;5074171;28;45304;-61
2022/05/21 04:48:44;;;;;;;;;1.50;1.00;;;;;17.95;56.95;102094.16;5073625;28;45482;-61
2022/05/21 04:51:10;;;;;;;;;5.75;2.75;;;;;17.97;56.58;102094.91;5073305;28;45236;-61
2022/05/21 04:53:36;;;;;;;;;3.00;3.00;;;;;17.97;56.22;102094.91;5069382;28;45263;-61
2022/05/21 04:56:03;;;;;;;;;2.25;2.25;;;;;17.98;56.04;102088.59;5073475;28;45326;-61
2022/05/21 04:58:29;;;;;;;;;3.00;2.00;;;;;18.02;56.38;102089.28;5072110;28;45521;-61
2022/05/21 05:00:55;;;;;;;;;2.75;2.50;;;;;18.02;56.59;102084.78;5073899;28;45510;-61
2022/05/21 05:03:21;;;;;;;;;10.00;5.00;;;;;18.04;56.28;102087.34;5070556;28;45524;-60
2022/05/21 05:05:47;;;;;;;;;7.00;4.00;;;;;18.05;56.30;102087.22;5071915;28;45533;-60
2022/05/21 05:08:15;;;;;;;;;3.25;3.25;;;;;18.07;56.54;102093.31;5073469;28;45483;-60
2022/05/21 05:10:44;;;;;;;;;10.00;6.00;;;;;18.06;56.25;102090.75;5070559;28;45301;-61
2022/05/21 05:13:10;;;;;;;;;7.25;6.25;;;;;18.03;56.85;102089.16;5071010;28;45492;-61
2022/05/21 05:15:37;;;;;;;;;9.75;8.25;;;;;18.03;56.66;102088.31;5073543;28;45374;-60
2022/05/21 05:18:08;;;;;;;;;12.00;9.00;;;;;18.03;56.89;102089.16;5070567;28;45320;-61
2022/05/21 05:20:35;;;;;;;;;7.00;6.50;;;;;18.08;57.01;102096.81;5073176;27;45434;-61
2022/05/21 05:23:01;;;;;;;;;7.75;6.25;;;;;18.11;56.47;102097.47;5071001;28;45596;-61
2022/05/21 05:25:27;;;;;;;;;5.75;5.00;;;;;18.11;56.43;102100.16;5071337;28;45476;-61
2022/05/21 05:27:52;;;;;;;;;14.25;5.00;;;;;18.14;56.21;102101.72;5073253;28;45470;-61
2022/05/21 05:30:20;;;;;;;;;5.25;5.25;;;;;18.17;55.91;102098.88;5073363;28;45417;-60
2022/05/21 05:32:46;;;;;;;;;5.75;4.00;;;;;18.19;55.75;102091.63;5071933;28;45406;-60
2022/05/21 05:35:12;;;;;;;;;5.00;4.25;;;;;18.24;56.31;102086.78;5070779;28;45419;-59
2022/05/21 05:37:39;;;;;;;;;5.25;5.00;;;;;18.27;55.52;102083.06;5071982;28;45307;-60
2022/05/21 05:40:12;;;;;;;;;7.00;5.50;;;;;18.30;56.05;102089.03;5071620;28;45394;-59
2022/05/21 05:42:38;;;;;;;;;6.75;6.75;;;;;18.34;56.00;102079.00;5068224;28;46131;-60
2022/05/21 05:45:05;;;;;;;;;5.50;4.00;;;;;18.46;59.66;102085.28;5073587;28;46333;-59
2022/05/21 05:47:33;;;;;;;;;8.25;6.00;;;;;18.64;56.58;102083.97;5072330;28;45442;-59
2022/05/21 05:49:59;;;;;;;;;6.25;5.00;;;;;18.73;56.57;102074.50;5071748;28;45590;-59
2022/05/21 05:52:25;;;;;;;;;5.25;2.50;;;;;18.76;55.50;102079.59;5070370;28;45495;-59
2022/05/21 05:54:51;;;;;;;;;7.25;5.00;;;;;18.71;55.50;102082.59;5071890;28;45347;-59
2022/05/21 05:57:16;;;;;;;;;4.25;4.00;;;;;18.66;55.49;102087.44;5072169;28;45307;-59
2022/05/21 05:59:48;;;;;;;;;4.00;4.00;;;;;18.61;55.15;102081.53;5071945;27;45446;-59
2022/05/21 06:04:58;;;;;;;;;6.75;5.00;;;;;18.58;55.56;102092.44;5072714;28;45365;-59
2022/05/21 06:07:24;;;;;;;;;4.00;4.00;;;;;18.60;55.55;102094.00;5060884;28;45493;-59
2022/05/21 06:09:50;;;;;;;;;4.00;4.00;;;;;18.67;55.63;102094.47;5070222;28;45406;-59
2022/05/21 06:12:15;;;;;;;;;7.00;5.00;;;;;18.79;55.50;102093.56;5070028;28;45367;-59
2022/05/21 06:14:41;;;;;;;;;6.50;5.50;;;;;18.91;55.44;102089.16;5070484;28;45185;-59
2022/05/21 06:17:09;;;;;;;;;4.00;2.50;;;;;19.02;54.52;102085.69;5072101;28;45283;-59
2022/05/21 06:19:35;;;;;;;;;4.00;2.00;;;;;19.07;53.39;102095.09;5074207;28;45560;-59
2022/05/21 06:22:03;;;;;;;;;3.25;2.25;;;;;19.12;53.20;102089.41;5071437;28;45489;-59
2022/05/21 06:24:29;;;;;;;;;4.00;4.00;;;;;19.13;52.46;102091.13;5071965;28;45312;-60
2022/05/21 06:26:54;;;;;;;;;3.00;1.50;;;;;19.21;52.89;102086.91;5060765;28;45185;-59
2022/05/21 06:29:20;;;;;;;;;3.25;2.50;;;;;19.33;53.53;102090.47;5058434;28;45600;-59
2022/05/21 06:31:46;;;;;;;;;4.00;1.75;;;;;19.53;52.38;102086.31;5070394;28;45969;-59
2022/05/21 06:34:12;;;;;;;;;3.00;1.00;;;;;19.55;51.77;102088.88;5060021;28;45199;-59
2022/05/21 06:36:37;;;;;;;;;2.00;2.00;;;;;19.53;51.26;102087.16;5065680;28;46407;-59
2022/05/21 06:39:03;;;;;;;;;2.25;2.25;;;;;19.56;53.49;102094.09;5070542;28;45414;-59
2022/05/21 06:41:31;;;;;;;;;2.75;2.75;;;;;19.74;53.69;102083.84;5070626;28;46214;-59
2022/05/21 06:43:57;;;;;;;;;3.00;3.00;;;;;19.88;52.98;102085.47;5069615;28;45322;-60
2022/05/21 06:46:23;;;;;;;;;6.00;3.00;;;;;19.97;52.65;102088.28;5070371;28;45493;-59
2022/05/21 06:48:48;;;;;;;;;2.25;2.25;;;;;19.96;51.55;102088.41;5072901;27;45640;-63
2022/05/21 06:51:14;;;;;;;;;3.00;3.00;;;;;19.89;51.66;102090.69;5074634;27;45374;-57
2022/05/21 06:53:40;;;;;;;;;3.50;2.00;;;;;19.91;51.82;102093.28;5062237;28;45529;-58
2022/05/21 06:56:16;;;;;;;;;2.75;2.50;;;;;19.92;51.37;102097.66;5061604;28;46333;-55
2022/05/21 06:58:43;;;;;;;;;2.75;2.75;;;;;19.93;50.81;102099.34;5067805;27;45609;-59
2022/05/21 07:01:09;;;;;;;;;2.00;2.00;;;;;19.88;51.09;102091.66;5070169;28;45366;-60
2022/05/21 07:03:35;;;;;;;;;4.00;3.00;;;;;19.87;51.67;102089.13;5071087;28;45570;-61
2022/05/21 07:08:46;;;;;;;;;3.50;1.75;;;;;19.79;51.34;102093.22;5061496;28;45476;-58
2022/05/21 07:11:11;;;;;;;;;5.00;3.50;;;;;19.74;51.95;102098.06;5070109;28;45397;-57
2022/05/21 07:13:37;;;;;;;;;2.00;1.00;;;;;19.70;51.63;102098.44;5069991;28;46640;-58
2022/05/21 07:16:02;;;;;;;;;4.25;2.50;;;;;19.70;51.13;102096.63;5069129;28;45571;-58
2022/05/21 07:18:28;;;;;;;;;3.00;3.00;;;;;19.70;51.19;102093.94;5069311;27;45621;-58
2022/05/21 07:20:55;;;;;;;;;4.00;3.00;;;;;19.72;52.00;102096.50;5072645;27;45541;-58
2022/05/21 07:23:21;;;;;;;;;3.25;3.00;;;;;19.84;52.95;102092.03;5070198;28;45404;-58
2022/05/21 07:25:48;;;;;;;;;4.25;4.25;;;;;19.98;54.00;102094.47;5070296;28;45428;-58
2022/05/21 07:28:14;;;;;;;;;6.25;3.50;;;;;20.07;51.14;102099.13;5071937;28;45424;-58
2022/05/21 07:30:42;;;;;;;;;3.00;3.00;;;;;20.14;53.66;102097.66;5068621;28;46282;-58
2022/05/21 07:33:14;;;;;;;;;6.50;3.00;;;;;20.25;52.17;102099.53;5069162;28;45493;-58
2022/05/21 07:35:40;;;;;;;;;4.25;4.00;;;;;20.25;51.34;102102.19;5061349;28;47528;-58
2022/05/21 07:38:07;;;;;;;;;3.50;2.50;;;;;20.19;51.15;102102.66;5072932;28;45576;-58
2022/05/21 07:40:34;;;;;;;;;2.00;2.00;;;;;20.17;50.40;102099.28;5066344;27;46105;-58
2022/05/21 07:43:19;;;;;;;;;3.75;2.25;;;;;20.15;50.94;102103.91;5070784;28;45456;-58
2022/05/21 07:45:46;;;;;;;;;3.00;3.00;;;;;20.14;50.89;102104.84;5067503;28;45470;-58
2022/05/21 07:48:14;;;;;;;;;4.75;2.00;;;;;20.12;50.89;102102.28;5067487;28;45468;-58
2022/05/21 07:50:41;;;;;;;;;3.00;1.75;;;;;20.10;51.02;102090.88;5058294;28;45720;-58
2022/05/21 07:53:16;;;;;;;;;3.00;2.50;;;;;20.08;50.13;102092.81;5056108;28;45310;-58
2022/05/21 07:55:44;;;;;;;;;3.50;2.00;;;;;20.09;50.47;102094.50;5060461;28;45503;-58
2022/05/21 07:58:10;;;;;;;;;1.00;0.00;;;;;20.07;51.68;102097.31;5060628;28;45462;-58
2022/05/21 08:00:36;;;;;;;;;5.50;1.75;;;;;20.11;49.72;102092.56;5060151;28;45477;-58
2022/05/21 08:03:02;;;;;;;;;3.00;1.25;;;;;20.13;50.29;102095.13;5060516;28;45193;-60
2022/05/21 08:05:28;;;;;;;;;2.75;2.00;;;;;20.14;50.42;102096.81;5060312;28;45475;-57
2022/05/21 08:07:54;;;;;;;;;0.25;0.25;;;;;20.20;50.39;102101.69;5061189;28;45186;-58
2022/05/21 08:10:22;;;;;;;;;0.25;0.25;;;;;20.26;50.10;102096.72;5060194;28;45382;-58
2022/05/21 08:12:48;;;;;;;;;3.00;1.00;;;;;20.31;49.76;102093.69;5060322;28;46271;-57
2022/05/21 08:15:14;;;;;;;;;1.00;1.00;;;;;20.34;50.14;102096.13;5060048;28;45305;-58
2022/05/21 08:17:39;;;;;;;;;1.50;1.00;;;;;20.35;49.64;102090.63;5060300;28;45259;-58
2022/05/21 08:20:06;;;;;;;;;1.00;1.00;;;;;20.38;49.24;102088.69;5059686;28;45208;-57
2022/05/21 08:27:59;;;;;;;;;3.75;1.00;;;;;20.46;48.87;102084.47;5062017;28;45303;-59
2022/05/21 08:30:25;;;;;;;;;0.00;0.00;;;;;20.53;49.39;102084.81;5058735;28;46004;-58
2022/05/21 08:33:00;;;;;;;;;1.00;1.00;;;;;20.61;49.20;102079.69;5059949;28;45240;-62
2022/05/21 08:35:26;;;;;;;;;4.50;1.00;;;;;20.62;49.42;102082.28;5057880;28;45225;-63
2022/05/21 08:37:52;;;;;;;;;2.00;1.75;;;;;20.63;48.82;102075.94;5059857;28;45423;-58
2022/05/21 08:40:17;;;;;;;;;3.00;2.25;;;;;20.64;48.92;102082.16;5059579;28;45500;-58
2022/05/21 08:42:54;;;;;;;;;3.50;1.00;;;;;20.63;48.66;102081.28;5060387;28;45331;-58
2022/05/21 08:45:41;;;;;;;;;1.25;1.00;;;;;20.65;48.53;102077.63;5061576;28;45458;-58
2022/05/21 08:48:10;;;;;;;;;5.25;1.00;;;;;20.67;48.74;102078.34;5067877;28;45497;-58
2022/05/21 08:50:42;;;;;;;;;1.00;1.00;;;;;20.68;48.73;102083.59;5061192;27;45332;-58
2022/05/21 08:53:19;;;;;;;;;1.75;0.00;;;;;20.72;48.47;102077.03;5058934;28;45259;-58
2022/05/21 08:55:47;;;;;;;;;0.00;0.00;;;;;20.76;48.20;102078.47;5059501;28;45315;-58
2022/05/21 08:58:24;;;;;;;;;0.00;0.00;;;;;20.82;48.67;102077.13;5060665;28;45431;-59
2022/05/21 09:00:50;;;;;;;;;1.00;1.00;;;;;20.84;48.31;102076.00;5060362;28;46291;-59
2022/05/21 09:03:21;;;;;;;;;2.00;0.50;;;;;20.86;47.77;102068.72;5063007;28;45393;-58
2022/05/21 09:06:09;;;;;;;;;0.50;0.50;;;;;20.91;47.88;102065.66;5063507;28;45278;-58
2022/05/21 09:09:01;;;;;;;;;1.50;0.25;;;;;20.97;46.92;102062.47;5050588;28;45410;-58
2022/05/21 09:11:26;;;;;;;;;1.00;1.00;;;;;21.02;47.16;102067.47;5062463;28;45521;-58
2022/05/21 09:14:18;;;;;;;;;2.00;1.50;;;;;21.03;47.45;102061.97;5061445;28;45277;-59
2022/05/21 09:16:57;;;;;;;;;2.75;2.00;;;;;21.09;47.18;102061.47;5046879;28;45242;-59
2022/05/21 09:19:28;;;;;;;;;3.00;1.00;;;;;21.14;47.54;102053.03;5062760;28;45417;-59
2022/05/21 09:22:02;;;;;;;;;3.00;1.25;;;;;21.17;46.99;102053.66;5062926;28;45575;-58
2022/05/21 09:24:42;;;;;;;;;0.50;0.50;;;;;21.25;47.26;102047.66;5062408;28;45425;-58
2022/05/21 09:27:23;;;;;;;;;5.25;2.25;;;;;21.34;48.36;102048.75;5071494;28;45445;-59
2022/05/21 09:29:51;;;;;;;;;1.50;1.00;;;;;21.45;47.25;102046.00;5058314;28;45466;-59
2022/05/21 09:32:19;;;;;;;;;6.00;3.00;;;;;21.51;48.75;102041.94;5058077;28;45649;-60
2022/05/21 09:34:57;;;;;;;;;2.25;2.25;;;;;21.55;47.24;102036.19;5055273;28;45418;-60
2022/05/21 09:37:28;;;;;;;;;1.25;1.00;;;;;21.54;47.42;102037.16;5063387;28;45517;-59
2022/05/21 09:39:53;;;;;;;;;2.00;1.50;;;;;21.52;46.86;102032.91;5061716;28;45387;-59
2022/05/21 09:45:23;;;;;;;;;3.50;2.00;;;;;21.74;47.14;102036.31;5062336;28;45177;-58
2022/05/21 09:47:53;;;;;;;;;1.25;1.25;;;;;21.80;46.63;102032.25;5062677;28;45323;-61
2022/05/21 09:50:26;;;;;;;;;3.00;1.00;;;;;21.85;47.10;102030.03;5061665;28;45640;-61
2022/05/21 09:52:52;;;;;;;;;1.50;1.50;;;;;21.93;46.81;102029.34;5061454;28;45420;-61
2022/05/21 09:55:19;;;;;;;;;1.75;1.25;;;;;21.99;46.97;102032.38;5061584;28;45351;-61
2022/05/21 09:57:45;;;;;;;;;2.25;0.50;;;;;22.08;47.10;102028.06;5062539;28;45337;-62
2022/05/21 10:00:29;;;;;;;;;2.00;2.00;;;;;22.14;48.11;102018.63;5061919;28;45611;-62
2022/05/21 10:03:01;;;;;;;;;1.25;1.25;;;;;22.17;47.44;102023.72;5061879;28;46441;-60
2022/05/21 10:05:36;;;;;;;;;2.25;0.75;;;;;22.18;46.81;102018.19;5067772;28;45495;-61
2022/05/21 10:11:00;;;;;;;;;2.25;2.25;;;;;22.33;47.36;102012.47;5068995;28;45462;-61
2022/05/21 10:13:32;;;;;;;;;1.00;1.00;;;;;22.40;46.73;102021.69;5069462;28;45546;-61
2022/05/21 10:16:31;;;;;;;;;1.75;1.25;;;;;22.47;46.21;102022.84;5066014;28;45369;-61
2022/05/21 10:19:23;;;;;;;;;1.50;0.75;;;;;22.52;46.20;102009.84;5067317;28;45497;-61
2022/05/21 10:22:08;;;;;;;;;4.25;2.75;;;;;22.61;45.86;102010.88;5071211;27;45393;-62
2022/05/21 10:24:55;;;;;;;;;3.50;1.50;;;;;22.68;45.58;102012.00;5069606;28;46335;-62
2022/05/21 10:27:44;;;;;;;;;2.50;2.50;;;;;22.75;46.14;102013.13;5071608;28;45681;-61
2022/05/21 10:30:30;;;;;;;;;3.00;3.00;;;;;22.80;46.15;102003.66;5068831;28;45478;-62
2022/05/21 10:33:00;;;;;;;;;3.75;1.25;;;;;22.83;45.18;102011.47;5064944;27;45381;-61
2022/05/21 10:35:38;;;;;;;;;2.00;2.00;;;;;22.84;45.74;102009.63;5069578;28;45405;-61
2022/05/21 10:38:42;;;;;;;;;2.00;2.00;;;;;22.86;45.19;102018.41;5067753;28;45526;-62
2022/05/21 10:41:32;;;;;;;;;1.25;1.25;;;;;22.84;45.51;102007.78;5069383;28;45489;-62
2022/05/21 10:44:34;;;;;;;;;5.00;4.00;;;;;22.85;44.86;102000.59;5066810;28;45561;-61
2022/05/21 10:47:15;;;;;;;;;5.50;3.50;;;;;22.93;45.44;102013.34;5056063;28;45342;-62
2022/05/21 10:50:18;;;;;;;;;6.75;6.75;;;;;23.06;45.94;101997.75;5051310;28;45492;-60
2022/05/21 10:52:50;;;;;;;;;4.75;2.75;;;;;23.07;45.12;102004.88;5039652;28;45807;-61
2022/05/21 10:55:26;;;;;;;;;3.50;3.50;;;;;23.08;45.05;101996.66;5061028;28;45396;-62
2022/05/21 10:58:13;;;;;;;;;4.50;4.00;;;;;23.13;45.37;101997.06;5061064;28;45546;-63
2022/05/21 11:01:04;;;;;;;;;4.00;4.00;;;;;23.23;45.82;101988.16;5060880;28;45720;-61
2022/05/21 11:04:14;;;;;;;;;3.50;3.00;;;;;23.39;45.63;101986.59;5060635;28;45460;-62
2022/05/21 11:07:13;;;;;;;;;7.00;3.25;;;;;23.45;44.72;101974.38;5054917;28;45220;-65
2022/05/21 11:10:12;;;;;;;;;3.75;3.00;;;;;23.47;45.18;101972.41;5061023;28;46046;-62
2022/05/21 11:13:03;;;;;;;;;3.25;2.75;;;;;23.56;44.73;101968.00;5060667;28;45379;-61
2022/05/21 11:15:52;;;;;;;;;5.25;3.00;;;;;23.62;45.04;101970.13;5060910;28;45399;-62
2022/05/21 11:18:30;;;;;;;;;5.75;3.75;;;;;23.70;44.25;101972.06;5061102;28;45401;-59
2022/05/21 11:21:01;;;;;;;;;4.25;3.00;;;;;23.78;44.46;101967.69;5060196;28;45367;-60
2022/05/21 11:23:31;;;;;;;;;3.00;3.00;;;;;23.89;44.53;101962.09;5060542;28;45366;-59
2022/05/21 11:26:16;;;;;;;;;4.25;1.50;;;;;23.99;44.30;101961.22;5060254;28;45164;-59
2022/05/21 11:28:50;;;;;;;;;1.00;1.00;;;;;24.08;43.72;101957.63;5064795;28;45554;-59
2022/05/21 11:37:21;;;;;;;;;5.00;3.00;;;;;24.27;43.17;101956.69;5062040;28;46406;-59
2022/05/21 11:39:48;;;;;;;;;4.25;3.00;;;;;24.24;42.83;101955.97;5061841;28;45478;-58
2022/05/21 11:42:16;;;;;;;;;2.75;2.75;;;;;24.24;43.02;101950.59;5061065;28;46145;-58
2022/05/21 11:44:59;;;;;;;;;3.00;2.00;;;;;24.24;42.70;101950.59;5060765;28;45241;-59
2022/05/21 11:47:33;;;;;;;;;5.00;3.25;;;;;24.34;42.84;101947.03;5060539;28;45402;-58
2022/05/21 11:50:03;;;;;;;;;3.00;2.00;;;;;24.41;42.33;101932.81;5060816;28;45250;-59
2022/05/21 11:52:35;;;;;;;;;1.75;1.75;;;;;24.48;42.84;101925.78;5060319;28;45396;-59
2022/05/21 11:55:12;;;;;;;;;4.00;3.00;;;;;24.50;42.74;101931.06;5060464;28;45347;-58
2022/05/21 11:57:43;;;;;;;;;3.25;2.75;;;;;24.53;43.12;101928.03;5060800;28;45247;-59
2022/05/21 12:00:29;;;;;;;;;3.00;1.50;;;;;24.50;42.14;101925.66;5060846;28;46557;-58
2022/05/21 12:02:54;;;;;;;;;2.25;2.25;;;;;24.48;42.98;101922.25;5060478;28;45351;-58
2022/05/21 12:05:41;;;;;;;;;4.50;3.00;;;;;24.46;42.55;101926.97;5060344;28;45175;-59